Time;durP1;ratioP1;P1;durP2;ratioP2;P2;SDS_P1;SDS_P2;PMS_P1;PMS_P2;Temp;Humidity;BMP_temperature;BMP_pressure;BME280_temperature;BME280_humidity;BME280_pressure;Samples;Min_cycle;Max_cycle;Signal;HPM_P1;HPM_P2
2021/08/13 00:00:29;;;;;;;8.35;4.00;;;;;;;22.16;54.78;100853.78;5115267;28;20066;-72
2021/08/13 00:02:57;;;;;;;7.55;3.85;;;;;;;22.09;54.96;100854.53;5114973;28;20048;-72
2021/08/13 00:05:26;;;;;;;5.40;3.55;;;;;;;22.02;55.15;100857.00;5115437;28;20118;-72
2021/08/13 00:07:55;;;;;;;6.07;3.65;;;;;;;22.04;55.33;100863.13;5114971;28;20127;-73
2021/08/13 00:10:24;;;;;;;6.03;3.38;;;;;;;21.97;55.14;100859.28;5115068;28;20096;-72
2021/08/13 00:12:52;;;;;;;7.35;3.40;;;;;;;22.02;55.03;100853.44;5114665;28;20039;-76
2021/08/13 00:15:21;;;;;;;6.20;4.10;;;;;;;21.96;55.47;100863.88;5115307;28;20428;-71
2021/08/13 00:17:49;;;;;;;6.05;3.58;;;;;;;22.01;55.30;100858.00;5115148;28;20074;-72
2021/08/13 00:20:20;;;;;;;6.45;3.40;;;;;;;22.04;55.24;100854.97;5115100;28;20044;-72
2021/08/13 00:22:49;;;;;;;8.15;3.60;;;;;;;21.96;55.46;100854.88;5115051;28;20046;-72
2021/08/13 00:25:18;;;;;;;5.43;3.47;;;;;;;22.06;54.82;100855.66;5114775;28;20055;-72
2021/08/13 00:27:48;;;;;;;8.27;3.75;;;;;;;22.14;54.63;100863.09;5114948;28;20046;-72
2021/08/13 00:30:16;;;;;;;5.45;3.53;;;;;;;21.98;54.96;100863.72;5114472;28;20147;-72
2021/08/13 00:32:45;;;;;;;6.60;3.53;;;;;;;22.00;55.06;100859.88;5114576;28;20050;-72
2021/08/13 00:35:13;;;;;;;6.75;3.63;;;;;;;21.93;55.17;100864.19;5114415;28;20055;-72
2021/08/13 00:37:42;;;;;;;6.95;3.67;;;;;;;21.96;54.71;100861.16;5114516;28;20523;-72
2021/08/13 00:40:10;;;;;;;5.60;3.50;;;;;;;22.01;54.12;100852.56;5096243;28;20484;-72
2021/08/13 00:42:38;;;;;;;6.03;3.70;;;;;;;22.21;53.69;100854.19;5114748;28;20051;-72
2021/08/13 00:45:09;;;;;;;7.53;3.65;;;;;;;22.20;53.98;100846.19;5114386;28;20040;-72
2021/08/13 00:47:38;;;;;;;5.85;3.67;;;;;;;22.14;53.71;100853.09;5114641;28;20053;-72
2021/08/13 00:50:09;;;;;;;6.45;3.40;;;;;;;22.05;54.65;100847.69;5114297;28;20476;-72
2021/08/13 00:52:38;;;;;;;6.20;3.35;;;;;;;21.89;54.62;100842.91;5114699;28;20036;-72
2021/08/13 00:55:08;;;;;;;6.25;3.47;;;;;;;22.05;54.41;100837.66;5113187;28;20066;-71
2021/08/13 00:57:36;;;;;;;5.40;3.45;;;;;;;21.94;54.92;100846.03;5114176;28;20105;-72
2021/08/13 01:00:06;;;;;;;5.57;3.47;;;;;;;21.89;54.86;100837.47;5114212;28;20043;-72
2021/08/13 01:02:36;;;;;;;5.40;3.58;;;;;;;22.04;54.14;100832.38;5113936;28;20039;-72
2021/08/13 01:05:05;;;;;;;5.75;3.30;;;;;;;21.91;54.79;100832.75;5095497;28;20058;-72
2021/08/13 01:07:34;;;;;;;6.90;3.80;;;;;;;21.84;54.91;100835.22;5114179;28;20050;-72
2021/08/13 01:10:05;;;;;;;5.75;3.33;;;;;;;21.77;54.61;100841.38;5113764;28;20130;-72
2021/08/13 01:12:42;;;;;;;9.10;3.67;;;;;;;21.60;54.81;100835.75;5114239;28;20448;-72
2021/08/13 01:15:15;;;;;;;6.18;3.72;;;;;;;21.83;54.60;100827.22;5113736;28;20039;-72
2021/08/13 01:17:49;;;;;;;7.47;3.72;;;;;;;21.68;55.59;100830.41;5114066;28;20476;-72
2021/08/13 01:20:38;;;;;;;7.07;3.72;;;;;;;21.56;55.52;100831.63;5113837;28;20047;-72
2021/08/13 01:23:13;;;;;;;7.55;3.85;;;;;;;21.59;55.96;100847.59;5113824;28;20044;-72
2021/08/13 01:25:44;;;;;;;7.45;3.60;;;;;;;21.44;55.98;100835.53;5113746;28;20043;-72
2021/08/13 01:28:26;;;;;;;5.80;3.40;;;;;;;21.36;56.33;100840.84;5113540;28;20039;-72
2021/08/13 01:30:55;;;;;;;7.28;3.97;;;;;;;21.32;56.41;100833.97;5113973;28;20044;-72
2021/08/13 01:33:25;;;;;;;7.35;3.55;;;;;;;21.50;56.49;100831.34;5095373;28;20048;-72
2021/08/13 01:35:54;;;;;;;6.97;3.47;;;;;;;21.34;56.96;100843.72;5113817;28;20044;-72
2021/08/13 01:38:26;;;;;;;6.50;3.65;;;;;;;21.28;57.41;100838.84;5113529;28;20450;-72
2021/08/13 01:40:59;;;;;;;7.38;3.58;;;;;;;21.17;57.84;100852.56;5113666;28;20032;-72
2021/08/13 01:43:32;;;;;;;6.88;3.85;;;;;;;21.06;58.65;100848.16;5113876;28;20393;-72
2021/08/13 01:46:01;;;;;;;7.07;4.18;;;;;;;21.32;57.74;100844.84;5113438;28;20461;-72
2021/08/13 01:48:32;;;;;;;7.05;4.07;;;;;;;21.30;57.50;100847.69;5113522;28;20036;-72
2021/08/13 01:51:00;;;;;;;6.43;3.88;;;;;;;21.29;57.78;100850.56;5113242;28;20044;-72
2021/08/13 01:53:31;;;;;;;6.05;3.78;;;;;;;21.25;57.72;100838.28;5113778;28;20032;-72
2021/08/13 01:56:00;;;;;;;7.40;4.10;;;;;;;21.14;58.61;100842.88;5095382;28;20085;-74
2021/08/13 01:58:30;;;;;;;6.07;3.67;;;;;;;21.15;58.60;100843.72;5113408;28;20040;-72
2021/08/13 02:00:58;;;;;;;5.53;3.80;;;;;;;21.06;58.67;100845.44;5113426;28;20048;-72
2021/08/13 02:03:27;;;;;;;7.90;4.00;;;;;;;21.04;58.46;100841.19;5113277;28;20043;-72
2021/08/13 02:05:57;;;;;;;7.13;3.58;;;;;;;20.86;59.71;100846.47;5114499;28;20050;-72
2021/08/13 02:08:26;;;;;;;7.30;3.90;;;;;;;20.88;59.66;100841.75;5117692;28;20036;-72
2021/08/13 02:10:56;;;;;;;9.40;4.20;;;;;;;20.92;59.62;100842.31;5117473;28;20048;-72
2021/08/13 02:13:25;;;;;;;7.78;4.20;;;;;;;20.75;60.19;100842.06;5117395;28;20131;-72
2021/08/13 02:16:00;;;;;;;8.98;4.05;;;;;;;20.84;60.26;100841.22;5117193;28;20048;-72
2021/08/13 02:18:30;;;;;;;9.30;3.90;;;;;;;20.80;60.27;100845.19;5117661;28;20044;-72
2021/08/13 02:21:05;;;;;;;6.00;3.83;;;;;;;20.88;60.59;100840.91;5117458;28;20040;-72
2021/08/13 02:23:34;;;;;;;7.93;4.53;;;;;;;20.65;61.50;100853.88;5098998;28;20047;-72
2021/08/13 02:26:02;;;;;;;7.68;4.28;;;;;;;20.54;61.74;100855.75;5116986;28;20043;-72
2021/08/13 02:28:30;;;;;;;7.22;4.20;;;;;;;20.60;61.16;100858.91;5117363;28;20075;-72
2021/08/13 02:31:01;;;;;;;6.40;3.83;;;;;;;20.70;60.67;100851.63;5117322;28;20067;-81
2021/08/13 02:33:29;;;;;;;7.28;4.05;;;;;;;20.66;61.56;100853.78;5117091;28;20097;-72
2021/08/13 02:36:05;;;;;;;8.32;4.68;;;;;;;20.62;61.11;100856.88;5117348;28;20047;-72
2021/08/13 02:38:40;;;;;;;9.05;4.95;;;;;;;20.65;61.26;100851.19;5116974;28;20043;-72
2021/08/13 02:41:09;;;;;;;8.98;4.25;;;;;;;20.61;61.13;100857.91;5116960;28;20047;-72
2021/08/13 02:43:42;;;;;;;6.72;4.20;;;;;;;20.63;60.93;100854.03;5117098;28;20039;-72
2021/08/13 02:46:13;;;;;;;8.32;4.65;;;;;;;20.48;61.67;100860.88;5116723;28;20047;-72
2021/08/13 02:48:42;;;;;;;6.03;4.05;;;;;;;20.55;59.58;100857.44;5116761;28;20119;-71
2021/08/13 02:51:16;;;;;;;8.38;4.65;;;;;;;20.68;60.47;100859.03;5116280;28;20043;-72
2021/08/13 02:53:48;;;;;;;9.23;4.53;;;;;;;20.52;61.19;100852.31;5116860;28;20043;-72
2021/08/13 02:56:19;;;;;;;7.60;4.00;;;;;;;20.54;61.38;100860.31;5116509;28;20127;-71
2021/08/13 02:58:51;;;;;;;6.43;4.03;;;;;;;20.72;60.60;100852.31;5098925;28;20062;-71
2021/08/13 03:01:22;;;;;;;8.38;4.55;;;;;;;20.58;60.95;100856.34;5116326;28;20481;-71
2021/08/13 03:03:54;;;;;;;6.10;4.45;;;;;;;20.56;60.46;100859.19;5116464;28;20067;-71
2021/08/13 03:06:31;;;;;;;6.95;4.40;;;;;;;20.70;60.28;100852.47;5116426;28;20400;-71
2021/08/13 03:09:01;;;;;;;7.32;4.10;;;;;;;20.55;61.11;100859.31;5116729;28;20124;-71
2021/08/13 03:11:31;;;;;;;7.03;4.20;;;;;;;20.43;62.03;100858.59;5116650;28;20073;-71
2021/08/13 03:13:59;;;;;;;6.85;4.57;;;;;;;20.48;61.52;100864.44;5116272;28;20393;-71
2021/08/13 03:16:28;;;;;;;7.13;4.20;;;;;;;20.36;62.26;100867.38;5115843;28;20039;-71
2021/08/13 03:18:57;;;;;;;9.25;4.85;;;;;;;20.38;62.32;100860.84;5115534;28;20434;-71
2021/08/13 03:21:27;;;;;;;7.53;4.30;;;;;;;20.35;61.82;100863.81;5115886;28;20097;-71
2021/08/13 03:23:56;;;;;;;7.00;4.03;;;;;;;20.29;62.66;100857.13;5116518;28;20141;-71
2021/08/13 03:26:26;;;;;;;8.73;4.30;;;;;;;20.31;62.27;100856.97;5115720;28;20039;-72
2021/08/13 03:28:54;;;;;;;7.45;4.35;;;;;;;20.33;62.38;100840.56;5115898;28;20093;-71
2021/08/13 03:31:31;;;;;;;7.32;4.07;;;;;;;20.25;62.50;100850.25;5115859;28;20127;-71
2021/08/13 03:34:00;;;;;;;5.95;4.22;;;;;;;20.26;62.84;100851.09;5115979;28;20048;-71
2021/08/13 03:36:30;;;;;;;6.40;4.07;;;;;;;20.25;63.10;100854.81;5115525;28;20039;-71
2021/08/13 03:38:58;;;;;;;6.38;4.50;;;;;;;20.32;63.24;100858.69;5115654;28;20096;-71
2021/08/13 03:41:26;;;;;;;7.30;4.22;;;;;;;20.33;63.22;100863.09;5115345;28;20473;-71
2021/08/13 03:43:54;;;;;;;7.00;4.45;;;;;;;20.33;63.64;100857.69;5115918;28;20118;-71
2021/08/13 03:46:23;;;;;;;7.80;4.45;;;;;;;20.40;63.82;100861.56;5115498;28;20051;-71
2021/08/13 03:48:51;;;;;;;8.32;4.25;;;;;;;20.34;64.18;100863.97;5115656;28;20118;-71
2021/08/13 03:51:20;;;;;;;8.70;4.90;;;;;;;20.15;64.76;100873.75;5115479;28;20393;-72
2021/08/13 03:53:50;;;;;;;7.28;4.63;;;;;;;20.25;64.92;100871.06;5115395;28;20051;-71
2021/08/13 03:56:18;;;;;;;10.18;4.90;;;;;;;20.17;65.10;100868.19;5115407;28;20368;-71
2021/08/13 03:58:46;;;;;;;6.35;4.32;;;;;;;20.17;65.30;100879.03;5097635;28;20051;-71
2021/08/13 04:01:14;;;;;;;7.90;4.68;;;;;;;20.25;64.65;100881.91;5115164;28;20100;-72
2021/08/13 04:03:43;;;;;;;7.32;4.65;;;;;;;20.48;64.01;100888.00;5115259;28;20093;-71
2021/08/13 04:06:11;;;;;;;6.05;4.18;;;;;;;20.37;64.01;100897.06;5115205;28;20051;-71
2021/08/13 04:08:39;;;;;;;7.93;4.45;;;;;;;20.48;64.00;100896.13;5115057;28;20047;-71
2021/08/13 04:11:08;;;;;;;8.60;4.78;;;;;;;20.37;64.19;100899.78;5096850;28;20044;-80
2021/08/13 04:13:36;;;;;;;8.15;5.03;;;;;;;20.34;64.69;100889.19;5115193;28;20036;-71
2021/08/13 04:16:05;;;;;;;6.75;4.07;;;;;;;20.49;62.95;100895.97;5115075;28;20440;-71
2021/08/13 04:18:34;;;;;;;7.85;4.30;;;;;;;20.35;62.70;100890.06;5115072;28;20051;-72
2021/08/13 04:21:04;;;;;;;8.82;4.65;;;;;;;20.51;62.67;100893.97;5115164;28;20067;-71
2021/08/13 04:23:33;;;;;;;8.93;4.72;;;;;;;20.33;63.02;100890.19;5114993;28;20440;-71
2021/08/13 04:26:01;;;;;;;7.40;4.38;;;;;;;20.48;62.57;100898.81;5114978;28;20035;-71
2021/08/13 04:28:31;;;;;;;6.68;4.20;;;;;;;20.43;61.97;100907.34;5114454;28;20527;-71
2021/08/13 04:30:59;;;;;;;8.38;4.53;;;;;;;20.44;61.82;100903.66;5114739;28;20040;-71
2021/08/13 04:33:28;;;;;;;7.70;4.60;;;;;;;20.60;61.08;100913.09;5114124;28;20046;-71
2021/08/13 04:35:56;;;;;;;7.97;3.97;;;;;;;20.76;60.70;100913.41;5096918;28;20408;-71
2021/08/13 04:38:25;;;;;;;6.90;4.20;;;;;;;20.74;60.26;100921.66;5114343;28;20120;-71
2021/08/13 04:40:53;;;;;;;10.27;4.68;;;;;;;20.89;60.01;100919.41;5114685;28;20043;-71
2021/08/13 04:43:21;;;;;;;6.53;4.18;;;;;;;20.94;59.05;100917.13;5114417;28;20067;-71
2021/08/13 04:45:51;;;;;;;10.23;4.47;;;;;;;21.07;58.34;100917.69;5114345;28;20043;-71
2021/08/13 04:48:19;;;;;;;7.70;4.40;;;;;;;21.27;57.85;100917.69;5114256;28;20092;-71
2021/08/13 04:50:47;;;;;;;7.60;3.97;;;;;;;21.52;56.24;100911.66;5114557;28;20035;-71
2021/08/13 04:53:16;;;;;;;7.05;3.88;;;;;;;21.53;56.99;100904.38;5114306;28;20051;-71
2021/08/13 04:55:44;;;;;;;7.57;4.30;;;;;;;21.91;55.87;100896.06;5114275;28;20043;-71
2021/08/13 04:58:12;;;;;;;9.07;4.35;;;;;;;22.11;54.92;100902.31;5113893;28;20460;-72
2021/08/13 05:00:41;;;;;;;6.80;3.75;;;;;;;22.32;54.20;100909.34;5114578;28;20039;-72
2021/08/13 05:03:10;;;;;;;7.47;3.97;;;;;;;22.37;53.67;100904.28;5114429;28;20523;-71
2021/08/13 05:05:38;;;;;;;8.90;3.67;;;;;;;22.49;52.56;100905.78;5114262;28;20044;-71
2021/08/13 05:08:08;;;;;;;7.82;4.10;;;;;;;22.68;52.37;100916.53;5114070;28;20118;-71
2021/08/13 05:10:39;;;;;;;10.30;3.90;;;;;;;22.99;51.41;100911.59;5113924;28;20069;-72
2021/08/13 05:13:07;;;;;;;6.68;3.50;;;;;;;23.18;49.27;100899.66;5114013;28;20047;-71
2021/08/13 05:15:35;;;;;;;6.25;4.00;;;;;;;23.16;49.60;100898.94;5113851;28;21934;-71
2021/08/13 05:18:04;;;;;;;7.93;3.80;;;;;;;22.95;49.20;100895.72;5113875;28;20073;-71
2021/08/13 05:20:34;;;;;;;7.65;3.90;;;;;;;22.81;50.03;100895.22;5113532;28;20450;-71
2021/08/13 05:23:02;;;;;;;5.75;3.78;;;;;;;22.68;49.43;100894.78;5113695;28;20042;-71
2021/08/13 05:25:31;;;;;;;7.70;3.63;;;;;;;22.60;49.40;100897.41;5113257;28;20475;-71
2021/08/13 05:27:59;;;;;;;7.75;3.92;;;;;;;22.61;50.05;100899.13;5113418;28;20542;-71
2021/08/13 05:30:27;;;;;;;7.90;4.07;;;;;;;22.82;48.99;100905.09;5113596;28;20043;-71
2021/08/13 05:32:55;;;;;;;6.72;3.95;;;;;;;23.16;48.40;100898.94;5113499;28;20070;-71
2021/08/13 05:35:24;;;;;;;5.30;3.55;;;;;;;23.81;46.54;100904.88;5112920;28;20055;-71
2021/08/13 05:37:53;;;;;;;8.15;3.90;;;;;;;24.10;45.85;100903.63;5113113;28;20047;-71
2021/08/13 05:40:22;;;;;;;7.18;3.95;;;;;;;24.38;45.60;100896.94;5112774;28;20484;-71
2021/08/13 05:42:51;;;;;;;7.35;3.40;;;;;;;24.84;44.26;100887.31;5113790;28;20054;-71
2021/08/13 05:45:19;;;;;;;7.13;4.28;;;;;;;25.00;43.82;100885.63;5113217;28;20050;-71
2021/08/13 05:47:47;;;;;;;5.97;3.95;;;;;;;25.51;42.46;100898.06;5113318;28;20405;-71
2021/08/13 05:50:17;;;;;;;8.70;4.22;;;;;;;25.36;42.23;100892.44;5113228;28;20077;-72
2021/08/13 05:52:45;;;;;;;9.23;4.30;;;;;;;25.77;41.80;100889.69;5113622;28;20439;-71
2021/08/13 05:55:17;;;;;;;6.53;3.53;;;;;;;26.01;40.16;100893.34;5113099;28;20044;-71
2021/08/13 05:57:45;;;;;;;6.38;3.17;;;;;;;25.50;41.41;100892.78;5113105;28;20050;-71
2021/08/13 06:00:15;;;;;;;9.98;3.80;;;;;;;25.08;41.43;100905.59;5113602;28;20136;-71
2021/08/13 06:02:55;;;;;;;6.80;3.50;;;;;;;24.76;42.52;100905.56;5113759;28;20468;-71
2021/08/13 06:05:23;;;;;;;7.63;3.85;;;;;;;24.67;42.91;100906.56;5094718;28;20454;-71
2021/08/13 06:07:51;;;;;;;5.68;3.30;;;;;;;24.84;43.00;100905.56;5113394;28;20051;-71
2021/08/13 06:10:22;;;;;;;4.28;3.42;;;;;;;24.78;42.87;100903.50;5112892;28;20492;-71
2021/08/13 06:12:51;;;;;;;6.70;3.83;;;;;;;24.55;43.20;100909.63;5113093;28;20067;-71
2021/08/13 06:15:19;;;;;;;7.63;3.67;;;;;;;24.44;43.10;100909.94;5112679;28;20452;-71
2021/08/13 06:17:49;;;;;;;7.53;3.42;;;;;;;24.19;43.86;100908.94;5113123;28;20035;-71
2021/08/13 06:20:19;;;;;;;7.90;3.80;;;;;;;23.62;45.29;100910.53;5112782;28;20498;-71
2021/08/13 06:22:49;;;;;;;6.28;3.88;;;;;;;23.42;45.32;100912.59;5113237;28;20071;-71
2021/08/13 06:25:17;;;;;;;6.25;3.47;;;;;;;23.72;45.00;100922.16;5112807;28;20399;-73
2021/08/13 06:27:47;;;;;;;6.82;3.80;;;;;;;23.91;44.99;100927.38;5112876;28;20051;-71
2021/08/13 06:30:19;;;;;;;7.07;3.80;;;;;;;24.83;43.51;100917.50;5113372;28;20048;-70
2021/08/13 06:32:48;;;;;;;7.25;3.92;;;;;;;25.24;42.29;100925.75;5112887;28;20050;-70
2021/08/13 06:35:16;;;;;;;6.22;3.80;;;;;;;25.57;41.19;100916.47;5112909;28;20051;-70
2021/08/13 06:37:45;;;;;;;6.45;4.28;;;;;;;26.24;40.02;100919.69;5113150;28;20063;-70
2021/08/13 06:40:15;;;;;;;8.00;3.90;;;;;;;26.47;39.67;100924.44;5112971;28;20134;-71
2021/08/13 06:42:44;;;;;;;6.75;3.92;;;;;;;26.67;38.43;100914.72;5112940;28;20039;-71
2021/08/13 06:45:16;;;;;;;4.68;3.53;;;;;;;27.09;37.25;100906.06;5113266;28;20039;-70
2021/08/13 06:47:44;;;;;;;5.63;3.90;;;;;;;27.03;38.15;100911.44;5112787;28;20044;-70
2021/08/13 06:50:15;;;;;;;6.15;3.67;;;;;;;27.37;37.35;100906.31;5113045;28;20054;-71
2021/08/13 06:52:44;;;;;;;5.40;3.58;;;;;;;27.42;37.31;100902.19;5113314;28;20058;-71
2021/08/13 06:55:13;;;;;;;8.27;3.60;;;;;;;27.29;37.26;100911.88;5116710;28;20036;-71
2021/08/13 06:57:41;;;;;;;6.13;3.70;;;;;;;27.29;37.06;100906.38;5116268;28;20496;-71
2021/08/13 07:00:11;;;;;;;7.43;4.30;;;;;;;27.76;36.83;100909.91;5116769;28;20040;-70
2021/08/13 07:02:46;;;;;;;6.07;3.20;;;;;;;27.47;36.34;100905.19;5116418;28;20101;-71
2021/08/13 07:05:16;;;;;;;6.78;3.65;;;;;;;27.56;37.01;100906.81;5116364;28;20071;-71
2021/08/13 07:07:44;;;;;;;8.32;3.65;;;;;;;27.44;37.22;100911.91;5116208;28;20059;-71
2021/08/13 07:10:13;;;;;;;8.80;3.67;;;;;;;27.42;37.55;100919.47;5116606;28;20039;-70
2021/08/13 07:12:41;;;;;;;6.78;3.50;;;;;;;27.45;37.10;100916.34;5115960;28;20071;-71
2021/08/13 07:15:11;;;;;;;6.40;3.55;;;;;;;27.49;37.37;100914.94;5116004;28;20113;-71
2021/08/13 07:17:42;;;;;;;7.78;3.50;;;;;;;27.57;36.93;100917.59;5115745;28;20130;-71
2021/08/13 07:20:10;;;;;;;7.32;3.45;;;;;;;27.57;36.35;100922.22;5116257;28;20069;-71
2021/08/13 07:22:39;;;;;;;7.05;3.28;;;;;;;27.18;37.94;100933.38;5115923;28;20055;-71
2021/08/13 07:25:08;;;;;;;5.22;3.60;;;;;;;26.78;38.23;100922.50;5116151;28;20105;-71
2021/08/13 07:27:37;;;;;;;7.20;3.35;;;;;;;26.58;38.93;100912.22;5115689;28;20047;-71
2021/08/13 07:30:06;;;;;;;5.68;3.38;;;;;;;26.27;39.54;100923.13;5116146;28;20043;-70
2021/08/13 07:32:34;;;;;;;5.93;3.70;;;;;;;26.22;39.29;100921.78;5115443;28;20515;-70
2021/08/13 07:35:05;;;;;;;6.05;3.45;;;;;;;26.44;39.23;100919.28;5097470;28;20078;-70
2021/08/13 07:37:33;;;;;;;6.38;3.28;;;;;;;26.65;39.33;100921.41;5115699;28;20089;-70
2021/08/13 07:40:01;;;;;;;7.97;3.70;;;;;;;26.61;39.00;100918.19;5115725;28;20122;-70
2021/08/13 07:42:30;;;;;;;7.78;3.00;;;;;;;26.59;38.11;100917.50;5115272;28;20044;-70
2021/08/13 07:44:58;;;;;;;6.60;3.08;;;;;;;26.62;39.01;100917.13;5115445;28;20047;-70
2021/08/13 07:47:29;;;;;;;7.07;3.17;;;;;;;26.74;38.99;100915.72;5115396;28;20048;-71
2021/08/13 07:49:57;;;;;;;7.10;3.50;;;;;;;26.78;38.12;100914.31;5097354;28;20092;-71
2021/08/13 07:52:29;;;;;;;5.65;3.30;;;;;;;26.83;38.55;100919.25;5115401;28;20093;-71
2021/08/13 07:54:57;;;;;;;6.00;3.35;;;;;;;26.74;38.69;100914.88;5115370;28;20043;-71
2021/08/13 07:57:26;;;;;;;7.55;3.80;;;;;;;26.67;38.44;100920.19;5114920;28;20096;-71
2021/08/13 07:59:54;;;;;;;6.50;3.60;;;;;;;26.61;38.72;100912.69;5115566;28;20043;-71
2021/08/13 08:02:23;;;;;;;7.20;3.40;;;;;;;26.71;38.58;100916.06;5114989;28;20050;-78
2021/08/13 08:04:52;;;;;;;6.90;3.03;;;;;;;26.86;38.57;100915.28;5115194;28;20061;-71
2021/08/13 08:07:20;;;;;;;6.88;3.40;;;;;;;26.90;38.67;100913.88;5115241;28;20040;-71
2021/08/13 08:09:49;;;;;;;6.30;3.40;;;;;;;26.96;38.76;100913.16;5115254;28;20074;-71
2021/08/13 08:12:17;;;;;;;7.20;3.88;;;;;;;26.98;39.13;100913.81;5114930;28;20098;-71
2021/08/13 08:14:45;;;;;;;5.80;3.50;;;;;;;27.23;38.48;100920.84;5114866;28;20446;-71
2021/08/13 08:17:14;;;;;;;5.97;3.25;;;;;;;27.21;38.04;100922.03;5114926;28;20040;-71
2021/08/13 08:19:42;;;;;;;8.10;3.70;;;;;;;27.23;37.78;100930.94;5114798;28;20050;-71
2021/08/13 08:22:10;;;;;;;6.55;4.00;;;;;;;27.40;37.90;100918.78;5114838;28;20085;-71
2021/08/13 08:24:40;;;;;;;6.22;3.42;;;;;;;27.35;36.62;100923.97;5114516;28;20040;-71
2021/08/13 08:27:10;;;;;;;5.35;3.15;;;;;;;27.45;36.57;100918.25;5115056;28;20404;-71
2021/08/13 08:29:38;;;;;;;5.07;3.05;;;;;;;27.48;36.17;100912.38;5114563;28;20089;-71
2021/08/13 08:32:07;;;;;;;6.38;3.42;;;;;;;27.55;37.34;100925.16;5114674;28;20488;-71
2021/08/13 08:34:35;;;;;;;4.68;3.17;;;;;;;27.74;36.53;100922.94;5114345;28;20448;-71
2021/08/13 08:37:09;;;;;;;7.57;3.22;;;;;;;27.79;36.97;100924.06;5114502;28;20042;-71
2021/08/13 08:39:38;;;;;;;6.43;3.30;;;;;;;27.81;36.54;100919.25;5114582;28;20442;-71
2021/08/13 08:42:13;;;;;;;5.35;3.08;;;;;;;27.77;36.38;100923.41;5114669;28;20051;-71
2021/08/13 08:44:41;;;;;;;6.03;3.28;;;;;;;27.91;36.32;100936.28;5114354;28;20096;-71
2021/08/13 08:47:10;;;;;;;8.57;3.35;;;;;;;27.94;37.36;100927.66;5114219;28;20050;-70
2021/08/13 08:49:40;;;;;;;7.47;3.55;;;;;;;27.97;37.34;100918.22;5113864;28;20074;-71
2021/08/13 08:52:10;;;;;;;7.72;3.40;;;;;;;27.95;36.46;100920.28;5096658;28;20396;-71
2021/08/13 08:54:43;;;;;;;7.13;3.42;;;;;;;27.82;37.71;100926.44;5114141;28;20047;-71
2021/08/13 08:57:13;;;;;;;5.05;3.38;;;;;;;27.84;38.00;100929.84;5096072;28;20048;-70
2021/08/13 08:59:42;;;;;;;6.30;3.10;;;;;;;27.98;37.40;100930.03;5114003;28;20039;-71
2021/08/13 09:02:11;;;;;;;6.20;3.15;;;;;;;27.99;36.81;100924.38;5113875;28;20055;-71
2021/08/13 09:04:40;;;;;;;4.70;3.30;;;;;;;27.91;37.42;100922.56;5114022;28;20050;-73
2021/08/13 09:07:13;;;;;;;7.72;3.70;;;;;;;28.00;36.99;100922.47;5114070;28;20046;-72
2021/08/13 09:09:41;;;;;;;6.22;3.60;;;;;;;28.02;37.86;100920.41;5113815;28;20092;-70
2021/08/13 09:12:10;;;;;;;5.50;3.20;;;;;;;27.99;37.82;100918.88;5114083;28;20043;-72
2021/08/13 09:14:41;;;;;;;6.78;3.72;;;;;;;28.18;37.41;100922.91;5113549;28;20043;-72
2021/08/13 09:17:10;;;;;;;5.88;3.40;;;;;;;28.22;36.85;100916.03;5113310;28;20533;-72
2021/08/13 09:19:42;;;;;;;9.13;3.80;;;;;;;28.10;37.51;100912.94;5113673;28;20039;-72
2021/08/13 09:22:13;;;;;;;8.70;3.35;;;;;;;28.33;36.65;100918.31;5113914;28;20040;-72
2021/08/13 09:24:43;;;;;;;4.95;2.90;;;;;;;28.40;35.96;100921.13;5113226;28;20123;-72
2021/08/13 09:27:20;;;;;;;6.45;3.03;;;;;;;28.48;35.74;100915.53;5113751;28;20097;-72
2021/08/13 09:30:09;;;;;;;5.15;3.05;;;;;;;28.46;35.34;100912.13;5113592;28;20108;-72
2021/08/13 09:32:38;;;;;;;6.13;3.30;;;;;;;28.49;35.28;100912.59;5113632;28;20044;-72
2021/08/13 09:35:13;;;;;;;7.63;3.30;;;;;;;28.58;35.01;100909.75;5113984;28;20074;-72
2021/08/13 09:37:48;;;;;;;7.82;3.72;;;;;;;28.56;35.26;100909.91;5113143;28;20047;-70
2021/08/13 09:40:17;;;;;;;6.82;3.40;;;;;;;28.56;34.73;100907.16;5113503;28;20050;-72
2021/08/13 09:42:48;;;;;;;6.10;3.03;;;;;;;28.73;34.51;100907.78;5113317;28;20039;-72
2021/08/13 09:45:17;;;;;;;6.82;3.20;;;;;;;28.66;35.03;100909.59;5113475;28;20043;-72
2021/08/13 09:47:47;;;;;;;8.70;3.35;;;;;;;28.79;35.37;100912.50;5113141;28;20044;-72
2021/08/13 09:50:20;;;;;;;7.80;3.60;;;;;;;28.92;35.31;100898.09;5113677;28;20074;-72
2021/08/13 09:53:10;;;;;;;6.18;3.13;;;;;;;29.16;34.64;100913.31;5113565;28;20081;-70
2021/08/13 09:55:39;;;;;;;6.80;3.30;;;;;;;29.43;33.94;100908.88;5113442;28;20043;-73
2021/08/13 09:58:10;;;;;;;5.25;3.53;;;;;;;29.34;33.91;100910.94;5113253;28;20079;-72
2021/08/13 10:00:47;;;;;;;6.10;3.15;;;;;;;29.36;34.45;100900.59;5113199;28;20043;-73
2021/08/13 10:03:16;;;;;;;6.35;3.55;;;;;;;29.53;34.36;100899.28;5113321;28;20032;-72
2021/08/13 10:05:45;;;;;;;7.28;3.42;;;;;;;29.74;33.62;100894.78;5113059;28;20373;-73
2021/08/13 10:08:13;;;;;;;6.28;3.20;;;;;;;29.88;33.87;100904.78;5113316;28;20044;-72
2021/08/13 10:10:43;;;;;;;8.73;3.65;;;;;;;29.99;33.46;100898.69;5113125;28;20044;-73
2021/08/13 10:13:13;;;;;;;5.43;3.08;;;;;;;30.04;33.11;100898.97;5113470;28;20131;-73
2021/08/13 10:15:44;;;;;;;6.82;3.60;;;;;;;30.08;33.09;100896.66;5113243;28;20051;-72
2021/08/13 10:18:17;;;;;;;6.35;3.47;;;;;;;30.13;33.64;100894.16;5113183;28;20043;-71
2021/08/13 10:20:49;;;;;;;7.15;3.92;;;;;;;30.22;32.90;100897.59;5112984;28;20123;-70
2021/08/13 10:23:17;;;;;;;8.93;2.97;;;;;;;30.38;32.67;100898.06;5113259;28;20040;-73
2021/08/13 10:25:46;;;;;;;7.80;3.63;;;;;;;30.60;32.98;100898.78;5112766;28;20046;-73
2021/08/13 10:28:17;;;;;;;6.03;3.42;;;;;;;30.66;33.05;100895.22;5116326;28;20036;-73
2021/08/13 10:30:46;;;;;;;9.75;4.15;;;;;;;30.68;33.20;100893.09;5116802;28;20119;-73
2021/08/13 10:33:17;;;;;;;7.38;3.20;;;;;;;30.51;33.37;100897.28;5117324;28;20042;-72
2021/08/13 10:35:50;;;;;;;7.28;3.63;;;;;;;30.71;32.98;100898.19;5116650;28;20055;-72
2021/08/13 10:38:21;;;;;;;8.20;3.70;;;;;;;30.81;32.69;100894.19;5117152;28;20097;-72
2021/08/13 10:40:51;;;;;;;6.13;3.67;;;;;;;30.85;32.55;100892.72;5116567;28;20062;-72
2021/08/13 10:43:27;;;;;;;6.85;3.80;;;;;;;30.82;32.96;100893.13;5116773;28;20122;-73
2021/08/13 10:45:57;;;;;;;6.18;3.35;;;;;;;30.80;33.10;100878.75;5116883;28;20477;-73
2021/08/13 10:48:29;;;;;;;6.80;3.92;;;;;;;30.72;33.36;100883.38;5116594;28;20096;-72
2021/08/13 10:50:57;;;;;;;7.10;3.27;;;;;;;30.71;33.21;100878.94;5116670;28;20145;-72
2021/08/13 10:53:30;;;;;;;7.13;3.67;;;;;;;30.56;33.61;100875.47;5116550;28;20047;-72
2021/08/13 10:55:59;;;;;;;8.18;3.80;;;;;;;30.56;33.60;100880.97;5116323;28;20047;-73
2021/08/13 10:58:48;;;;;;;5.50;2.97;;;;;;;30.57;33.27;100881.81;5098463;28;20058;-72
2021/08/13 11:01:18;;;;;;;5.68;3.47;;;;;;;30.36;33.91;100877.31;5116846;28;20512;-72
2021/08/13 11:04:11;;;;;;;5.00;3.33;;;;;;;30.30;34.49;100869.88;5097975;28;20381;-73
2021/08/13 11:06:44;;;;;;;7.13;4.07;;;;;;;30.37;34.19;100863.34;5116284;28;20509;-73
2021/08/13 11:09:13;;;;;;;7.20;3.40;;;;;;;30.43;34.40;100857.03;5116163;28;20035;-72
2021/08/13 11:12:07;;;;;;;7.15;3.67;;;;;;;30.48;34.24;100857.22;5115828;28;20055;-73
2021/08/13 11:14:45;;;;;;;5.38;3.60;;;;;;;30.58;33.95;100851.31;5115898;28;20481;-77
2021/08/13 11:17:33;;;;;;;5.18;3.38;;;;;;;30.60;34.04;100851.97;5116169;28;20122;-71
2021/08/13 11:20:05;;;;;;;7.13;3.47;;;;;;;30.50;34.22;100848.78;5116204;28;20046;-72
2021/08/13 11:22:36;;;;;;;7.40;4.03;;;;;;;30.52;34.23;100846.66;5116137;28;20073;-72
2021/08/13 11:25:07;;;;;;;6.57;3.70;;;;;;;30.56;34.11;100842.44;5116248;28;20373;-73
2021/08/13 11:27:37;;;;;;;8.50;3.63;;;;;;;30.53;34.37;100842.84;5115806;28;20039;-73
2021/08/13 11:30:27;;;;;;;6.18;3.38;;;;;;;30.57;34.39;100835.88;5115805;28;20047;-73
2021/08/13 11:33:40;;;;;;;7.80;3.70;;;;;;;30.67;34.36;100830.81;5115923;28;20044;-72
2021/08/13 11:36:50;;;;;;;7.07;3.58;;;;;;;30.57;34.05;100835.00;5102206;28;20040;-73
2021/08/13 11:39:37;;;;;;;7.38;3.60;;;;;;;30.45;34.34;100826.53;5115217;28;20069;-72